sensor_id;sensor_type;location;lat;lon;timestamp;pressure;altitude;pressure_sealevel;temperature;humidity
48527;BME280;34317;51.660;5.824;2023-03-20T00:00:31;101920.31;;;12.64;56.95
48527;BME280;34317;51.660;5.824;2023-03-20T00:03:00;101915.91;;;12.63;57.02
48527;BME280;34317;51.660;5.824;2023-03-20T00:05:28;101912.31;;;12.64;56.95
48527;BME280;34317;51.660;5.824;2023-03-20T00:07:56;101913.25;;;12.63;56.83
48527;BME280;34317;51.660;5.824;2023-03-20T00:10:30;101907.91;;;12.63;57.06
48527;BME280;34317;51.660;5.824;2023-03-20T00:12:58;101907.91;;;12.63;57.02
48527;BME280;34317;51.660;5.824;2023-03-20T00:15:29;101905.31;;;12.62;56.86
48527;BME280;34317;51.660;5.824;2023-03-20T00:17:57;101906.22;;;12.62;56.95
48527;BME280;34317;51.660;5.824;2023-03-20T00:20:25;101902.75;;;12.60;56.88
48527;BME280;34317;51.660;5.824;2023-03-20T00:22:52;101896.53;;;12.60;57.00
48527;BME280;34317;51.660;5.824;2023-03-20T00:25:22;101901.00;;;12.59;57.19
48527;BME280;34317;51.660;5.824;2023-03-20T00:27:50;101893.97;;;12.58;57.00
48527;BME280;34317;51.660;5.824;2023-03-20T00:30:27;101904.59;;;12.58;57.14
48527;BME280;34317;51.660;5.824;2023-03-20T00:32:56;101908.16;;;12.57;57.15
48527;BME280;34317;51.660;5.824;2023-03-20T00:35:28;101904.69;;;12.55;57.02
48527;BME280;34317;51.660;5.824;2023-03-20T00:37:58;101897.63;;;12.54;57.47
48527;BME280;34317;51.660;5.824;2023-03-20T00:40:30;101897.63;;;12.54;57.19
48527;BME280;34317;51.660;5.824;2023-03-20T00:43:00;101890.59;;;12.53;57.25
48527;BME280;34317;51.660;5.824;2023-03-20T00:45:30;101879.97;;;12.53;57.24
48527;BME280;34317;51.660;5.824;2023-03-20T00:47:58;101884.41;;;12.53;57.13
48527;BME280;34317;51.660;5.824;2023-03-20T00:50:28;101885.38;;;12.50;57.23
48527;BME280;34317;51.660;5.824;2023-03-20T00:52:57;101881.91;;;12.48;57.34
48527;BME280;34317;51.660;5.824;2023-03-20T00:55:27;101868.69;;;12.46;57.48
48527;BME280;34317;51.660;5.824;2023-03-20T00:57:58;101865.09;;;12.48;57.54
48527;BME280;34317;51.660;5.824;2023-03-20T01:03:12;101865.97;;;12.48;57.48
48527;BME280;34317;51.660;5.824;2023-03-20T01:05:40;101871.28;;;12.48;57.63
48527;BME280;34317;51.660;5.824;2023-03-20T01:10:43;101870.44;;;12.48;57.50
48527;BME280;34317;51.660;5.824;2023-03-20T01:13:22;101867.72;;;12.49;57.50
48527;BME280;34317;51.660;5.824;2023-03-20T01:15:51;101867.72;;;12.49;57.44
48527;BME280;34317;51.660;5.824;2023-03-20T01:18:20;101876.59;;;12.48;57.59
48527;BME280;34317;51.660;5.824;2023-03-20T01:20:48;101898.72;;;12.49;57.46
48527;BME280;34317;51.660;5.824;2023-03-20T01:23:15;101898.78;;;12.47;57.49
48527;BME280;34317;51.660;5.824;2023-03-20T01:25:42;101910.34;;;12.46;57.47
48527;BME280;34317;51.660;5.824;2023-03-20T01:28:19;101912.19;;;12.44;57.46
48527;BME280;34317;51.660;5.824;2023-03-20T01:30:47;101912.19;;;12.44;57.56
48527;BME280;34317;51.660;5.824;2023-03-20T01:33:20;101908.72;;;12.42;57.64
48527;BME280;34317;51.660;5.824;2023-03-20T01:35:52;101905.13;;;12.43;57.46
48527;BME280;34317;51.660;5.824;2023-03-20T01:38:24;101914.03;;;12.42;57.51
48527;BME280;34317;51.660;5.824;2023-03-20T01:43:27;101914.13;;;12.39;57.45
48527;BME280;34317;51.660;5.824;2023-03-20T01:51:29;101908.94;;;12.36;57.45
48527;BME280;34317;51.660;5.824;2023-03-20T01:54:08;101908.94;;;12.36;57.40
48527;BME280;34317;51.660;5.824;2023-03-20T01:56:50;101916.06;;;12.34;57.51
48527;BME280;34317;51.660;5.824;2023-03-20T01:59:42;101914.34;;;12.33;57.37
48527;BME280;34317;51.660;5.824;2023-03-20T02:02:09;101921.50;;;12.31;57.30
48527;BME280;34317;51.660;5.824;2023-03-20T02:04:41;101916.28;;;12.27;57.33
48527;BME280;34317;51.660;5.824;2023-03-20T02:07:15;101905.78;;;12.24;57.36
48527;BME280;34317;51.660;5.824;2023-03-20T02:09:57;101907.63;;;12.22;57.20
48527;BME280;34317;51.660;5.824;2023-03-20T02:12:47;101893.50;;;12.20;57.13
48527;BME280;34317;51.660;5.824;2023-03-20T02:15:25;101889.13;;;12.19;57.19
48527;BME280;34317;51.660;5.824;2023-03-20T02:18:13;101891.88;;;12.16;57.43
48527;BME280;34317;51.660;5.824;2023-03-20T02:21:14;101900.88;;;12.12;56.95
48527;BME280;34317;51.660;5.824;2023-03-20T02:27:12;101886.31;;;11.99;57.09
48527;BME280;34317;51.660;5.824;2023-03-20T02:32:56;101897.25;;;11.88;57.05
48527;BME280;34317;51.660;5.824;2023-03-20T02:41:17;101916.19;;;11.77;56.86
48527;BME280;34317;51.660;5.824;2023-03-20T02:46:31;101916.50;;;11.68;57.07
48527;BME280;34317;51.660;5.824;2023-03-20T02:49:17;101921.84;;;11.66;57.30
48527;BME280;34317;51.660;5.824;2023-03-20T02:51:57;101915.72;;;11.64;57.01
48527;BME280;34317;51.660;5.824;2023-03-20T02:54:40;101918.47;;;11.61;57.25
48527;BME280;34317;51.660;5.824;2023-03-20T02:57:28;101915.03;;;11.58;57.16
48527;BME280;34317;51.660;5.824;2023-03-20T03:00:03;101897.50;;;11.54;57.13
48527;BME280;34317;51.660;5.824;2023-03-20T03:02:47;101888.72;;;11.52;57.48
48527;BME280;34317;51.660;5.824;2023-03-20T03:05:25;101886.09;;;11.50;57.36
48527;BME280;34317;51.660;5.824;2023-03-20T03:07:54;101895.84;;;11.49;57.48
48527;BME280;34317;51.660;5.824;2023-03-20T03:10:29;101887.09;;;11.47;57.52
48527;BME280;34317;51.660;5.824;2023-03-20T03:13:00;101895.94;;;11.46;57.50
48527;BME280;34317;51.660;5.824;2023-03-20T03:15:41;101890.75;;;11.43;57.38
48527;BME280;34317;51.660;5.824;2023-03-20T03:18:15;101889.00;;;11.42;57.47
48527;BME280;34317;51.660;5.824;2023-03-20T03:20:44;101886.41;;;11.41;57.46
48527;BME280;34317;51.660;5.824;2023-03-20T03:23:26;101887.38;;;11.38;57.55
48527;BME280;34317;51.660;5.824;2023-03-20T03:25:55;101884.81;;;11.35;57.64
48527;BME280;34317;51.660;5.824;2023-03-20T03:28:32;101880.44;;;11.34;57.46
48527;BME280;34317;51.660;5.824;2023-03-20T03:31:10;101869.81;;;11.34;57.60
48527;BME280;34317;51.660;5.824;2023-03-20T03:33:40;101866.34;;;11.32;57.58
48527;BME280;34317;51.660;5.824;2023-03-20T03:36:32;101859.31;;;11.31;57.41
48527;BME280;34317;51.660;5.824;2023-03-20T03:41:48;101843.47;;;11.28;57.66
48527;BME280;34317;51.660;5.824;2023-03-20T03:44:22;101834.66;;;11.27;57.56
48527;BME280;34317;51.660;5.824;2023-03-20T03:46:58;101836.47;;;11.27;57.63
48527;BME280;34317;51.660;5.824;2023-03-20T03:49:35;101847.94;;;11.27;57.66
48527;BME280;34317;51.660;5.824;2023-03-20T03:52:09;101847.94;;;11.27;57.52
48527;BME280;34317;51.660;5.824;2023-03-20T03:54:44;101857.66;;;11.27;57.58
48527;BME280;34317;51.660;5.824;2023-03-20T03:57:40;101847.06;;;11.27;57.61
48527;BME280;34317;51.660;5.824;2023-03-20T04:00:15;101840.00;;;11.26;57.72
48527;BME280;34317;51.660;5.824;2023-03-20T04:02:45;101840.00;;;11.26;57.58
48527;BME280;34317;51.660;5.824;2023-03-20T04:05:13;101840.13;;;11.23;57.53
48527;BME280;34317;51.660;5.824;2023-03-20T04:07:46;101841.97;;;11.21;57.65
48527;BME280;34317;51.660;5.824;2023-03-20T04:10:14;101842.06;;;11.18;57.51
48527;BME280;34317;51.660;5.824;2023-03-20T04:12:43;101844.78;;;11.15;57.59
48527;BME280;34317;51.660;5.824;2023-03-20T04:15:12;101845.81;;;11.10;57.68
48527;BME280;34317;51.660;5.824;2023-03-20T04:17:39;101838.78;;;11.09;57.66
48527;BME280;34317;51.660;5.824;2023-03-20T04:20:09;101840.59;;;11.07;57.48
48527;BME280;34317;51.660;5.824;2023-03-20T04:22:37;101842.41;;;11.05;57.56
48527;BME280;34317;51.660;5.824;2023-03-20T04:25:16;101835.47;;;11.01;57.74
48527;BME280;34317;51.660;5.824;2023-03-20T04:27:43;101846.94;;;11.02;57.59
48527;BME280;34317;51.660;5.824;2023-03-20T04:30:18;101838.16;;;11.00;57.60
48527;BME280;34317;51.660;5.824;2023-03-20T04:33:04;101836.47;;;10.99;57.78
48527;BME280;34317;51.660;5.824;2023-03-20T04:36:11;101821.59;;;10.93;57.41
48527;BME280;34317;51.660;5.824;2023-03-20T04:38:39;101819.97;;;10.89;57.44
48527;BME280;34317;51.660;5.824;2023-03-20T04:41:07;101807.69;;;10.85;57.58
48527;BME280;34317;51.660;5.824;2023-03-20T04:43:35;101820.13;;;10.83;57.59
48527;BME280;34317;51.660;5.824;2023-03-20T04:46:03;101827.25;;;10.81;57.60
48527;BME280;34317;51.660;5.824;2023-03-20T04:48:30;101820.25;;;10.80;57.77
48527;BME280;34317;51.660;5.824;2023-03-20T04:50:58;101820.28;;;10.78;57.83
48527;BME280;34317;51.660;5.824;2023-03-20T04:53:36;101810.56;;;10.79;57.91
48527;BME280;34317;51.660;5.824;2023-03-20T04:56:04;101809.72;;;10.77;57.58
48527;BME280;34317;51.660;5.824;2023-03-20T04:58:33;101805.38;;;10.76;57.79
48527;BME280;34317;51.660;5.824;2023-03-20T05:01:02;101808.00;;;10.76;57.96
48527;BME280;34317;51.660;5.824;2023-03-20T05:03:30;101816.88;;;10.75;57.93
48527;BME280;34317;51.660;5.824;2023-03-20T05:05:58;101822.25;;;10.71;58.04
48527;BME280;34317;51.660;5.824;2023-03-20T05:08:25;101822.34;;;10.68;57.80
48527;BME280;34317;51.660;5.824;2023-03-20T05:10:57;101822.34;;;10.68;57.87
48527;BME280;34317;51.660;5.824;2023-03-20T05:13:50;101822.34;;;10.68;58.07
48527;BME280;34317;51.660;5.824;2023-03-20T05:16:38;101810.81;;;10.69;57.89
48527;BME280;34317;51.660;5.824;2023-03-20T05:19:29;101818.78;;;10.69;58.06
48527;BME280;34317;51.660;5.824;2023-03-20T05:22:16;101822.34;;;10.68;57.95
48527;BME280;34317;51.660;5.824;2023-03-20T05:24:54;101831.13;;;10.70;57.96
48527;BME280;34317;51.660;5.824;2023-03-20T05:27:53;101829.38;;;10.69;58.02
48527;BME280;34317;51.660;5.824;2023-03-20T05:30:28;101825.81;;;10.70;57.92
48527;BME280;34317;51.660;5.824;2023-03-20T05:33:13;101811.63;;;10.71;57.58
48527;BME280;34317;51.660;5.824;2023-03-20T05:35:52;101817.75;;;10.74;58.05
48527;BME280;34317;51.660;5.824;2023-03-20T05:38:55;101811.56;;;10.75;57.87
48527;BME280;34317;51.660;5.824;2023-03-20T05:41:45;101818.63;;;10.76;57.87
48527;BME280;34317;51.660;5.824;2023-03-20T05:44:30;101812.53;;;10.72;57.57
48527;BME280;34317;51.660;5.824;2023-03-20T05:47:16;101812.56;;;10.70;57.56
48527;BME280;34317;51.660;5.824;2023-03-20T05:50:02;101820.72;;;10.64;57.73
48527;BME280;34317;51.660;5.824;2023-03-20T05:52:49;101824.25;;;10.63;57.65
48527;BME280;34317;51.660;5.824;2023-03-20T05:55:32;101831.31;;;10.64;57.83
48527;BME280;34317;51.660;5.824;2023-03-20T05:58:13;101831.31;;;10.64;57.61
48527;BME280;34317;51.660;5.824;2023-03-20T06:00:57;101843.63;;;10.65;58.06
48527;BME280;34317;51.660;5.824;2023-03-20T06:03:43;101847.09;;;10.67;57.84
48527;BME280;34317;51.660;5.824;2023-03-20T06:06:18;101857.69;;;10.67;57.57
48527;BME280;34317;51.660;5.824;2023-03-20T06:08:48;101843.53;;;10.68;57.72
48527;BME280;34317;51.660;5.824;2023-03-20T06:11:16;101850.56;;;10.69;57.89
48527;BME280;34317;51.660;5.824;2023-03-20T06:13:43;101844.38;;;10.70;57.76
48527;BME280;34317;51.660;5.824;2023-03-20T06:16:11;101849.66;;;10.70;57.61
48527;BME280;34317;51.660;5.824;2023-03-20T06:18:39;101854.03;;;10.71;57.61
48527;BME280;34317;51.660;5.824;2023-03-20T06:21:07;101858.41;;;10.74;57.79
48527;BME280;34317;51.660;5.824;2023-03-20T06:23:35;101857.44;;;10.77;57.88
48527;BME280;34317;51.660;5.824;2023-03-20T06:26:02;101859.19;;;10.78;57.68
48527;BME280;34317;51.660;5.824;2023-03-20T06:28:42;101866.13;;;10.82;57.67
48527;BME280;34317;51.660;5.824;2023-03-20T06:31:09;101866.13;;;10.82;57.75
48527;BME280;34317;51.660;5.824;2023-03-20T06:33:36;101862.53;;;10.83;57.70
48527;BME280;34317;51.660;5.824;2023-03-20T06:36:04;101860.69;;;10.85;57.83
48527;BME280;34317;51.660;5.824;2023-03-20T06:38:31;101860.63;;;10.88;57.69
48527;BME280;34317;51.660;5.824;2023-03-20T06:41:04;101865.84;;;10.91;57.65
48527;BME280;34317;51.660;5.824;2023-03-20T06:43:33;101863.97;;;10.95;57.79
48527;BME280;34317;51.660;5.824;2023-03-20T06:46:00;101862.09;;;10.98;57.61
48527;BME280;34317;51.660;5.824;2023-03-20T06:48:29;101862.00;;;11.01;57.86
48527;BME280;34317;51.660;5.824;2023-03-20T06:51:07;101864.56;;;11.04;57.68
48527;BME280;34317;51.660;5.824;2023-03-20T06:53:43;101868.84;;;11.08;57.71
48527;BME280;34317;51.660;5.824;2023-03-20T06:56:20;101874.06;;;11.12;57.47
48527;BME280;34317;51.660;5.824;2023-03-20T06:58:47;101879.25;;;11.15;57.62
48527;BME280;34317;51.660;5.824;2023-03-20T07:01:15;101872.13;;;11.17;57.41
48527;BME280;34317;51.660;5.824;2023-03-20T07:03:43;101876.47;;;11.19;57.44
48527;BME280;34317;51.660;5.824;2023-03-20T07:06:12;101877.34;;;11.20;57.25
48527;BME280;34317;51.660;5.824;2023-03-20T07:08:39;101875.50;;;11.22;57.14
48527;BME280;34317;51.660;5.824;2023-03-20T07:11:06;101879.84;;;11.24;57.37
48527;BME280;34317;51.660;5.824;2023-03-20T07:13:35;101880.72;;;11.25;57.41
48527;BME280;34317;51.660;5.824;2023-03-20T07:16:16;101889.50;;;11.27;57.39
48527;BME280;34317;51.660;5.824;2023-03-20T07:18:43;101882.34;;;11.29;57.33
48527;BME280;34317;51.660;5.824;2023-03-20T07:21:16;101893.75;;;11.33;57.22
48527;BME280;34317;51.660;5.824;2023-03-20T07:23:44;101889.22;;;11.36;57.07
48527;BME280;34317;51.660;5.824;2023-03-20T07:26:13;101890.81;;;11.42;57.10
48527;BME280;34317;51.660;5.824;2023-03-20T07:28:40;101893.41;;;11.43;57.04
48527;BME280;34317;51.660;5.824;2023-03-20T07:31:25;101900.34;;;11.47;57.09
48527;BME280;34317;51.660;5.824;2023-03-20T07:34:01;101906.47;;;11.49;57.04
48527;BME280;34317;51.660;5.824;2023-03-20T07:36:28;101898.41;;;11.53;56.99
48527;BME280;34317;51.660;5.824;2023-03-20T07:38:56;101894.78;;;11.55;56.97
48527;BME280;34317;51.660;5.824;2023-03-20T07:41:24;101908.03;;;11.57;56.82
48527;BME280;34317;51.660;5.824;2023-03-20T07:44:00;101895.56;;;11.59;57.00
48527;BME280;34317;51.660;5.824;2023-03-20T07:46:41;101903.41;;;11.62;56.98
48527;BME280;34317;51.660;5.824;2023-03-20T07:49:10;101904.22;;;11.64;56.99
48527;BME280;34317;51.660;5.824;2023-03-20T07:51:38;101890.06;;;11.65;56.89
48527;BME280;34317;51.660;5.824;2023-03-20T07:54:05;101888.22;;;11.67;56.91
48527;BME280;34317;51.660;5.824;2023-03-20T07:56:32;101896.91;;;11.72;56.87
48527;BME280;34317;51.660;5.824;2023-03-20T07:59:00;101899.38;;;11.77;56.77
48527;BME280;34317;51.660;5.824;2023-03-20T08:01:27;101894.84;;;11.80;56.87
48527;BME280;34317;51.660;5.824;2023-03-20T08:03:54;101894.75;;;11.83;56.62
48527;BME280;34317;51.660;5.824;2023-03-20T08:06:21;101896.38;;;11.87;56.74
48527;BME280;34317;51.660;5.824;2023-03-20T08:08:48;101895.44;;;11.90;56.72
48527;BME280;34317;51.660;5.824;2023-03-20T08:11:18;101890.91;;;11.94;56.55
48527;BME280;34317;51.660;5.824;2023-03-20T08:13:45;101896.09;;;11.97;56.60
48527;BME280;34317;51.660;5.824;2023-03-20T08:16:13;101895.13;;;11.99;56.42
48527;BME280;34317;51.660;5.824;2023-03-20T08:18:40;101896.03;;;12.00;56.23
48527;BME280;34317;51.660;5.824;2023-03-20T08:21:08;101902.19;;;12.00;56.06
48527;BME280;34317;51.660;5.824;2023-03-20T08:23:35;101891.56;;;12.00;56.09
48527;BME280;34317;51.660;5.824;2023-03-20T08:26:02;101897.75;;;12.01;56.01
48527;BME280;34317;51.660;5.824;2023-03-20T08:28:29;101894.19;;;12.02;56.03
48527;BME280;34317;51.660;5.824;2023-03-20T08:31:14;101895.88;;;12.03;56.11
48527;BME280;34317;51.660;5.824;2023-03-20T08:33:41;101894.06;;;12.05;56.09
48527;BME280;34317;51.660;5.824;2023-03-20T08:36:08;101893.97;;;12.08;55.83
48527;BME280;34317;51.660;5.824;2023-03-20T08:38:35;101899.25;;;12.08;55.95
48527;BME280;34317;51.660;5.824;2023-03-20T08:41:05;101897.41;;;12.10;55.84
48527;BME280;34317;51.660;5.824;2023-03-20T08:43:32;101897.34;;;12.13;55.82
48527;BME280;34317;51.660;5.824;2023-03-20T08:45:59;101896.38;;;12.14;55.43
48527;BME280;34317;51.660;5.824;2023-03-20T08:48:27;101882.16;;;12.17;55.66
48527;BME280;34317;51.660;5.824;2023-03-20T08:50:54;101891.78;;;12.19;55.70
48527;BME280;34317;51.660;5.824;2023-03-20T08:53:21;101884.53;;;12.24;55.75
48527;BME280;34317;51.660;5.824;2023-03-20T08:55:52;101887.94;;;12.28;55.54
48527;BME280;34317;51.660;5.824;2023-03-20T08:58:20;101882.47;;;12.33;55.38
48527;BME280;34317;51.660;5.824;2023-03-20T09:00:47;101884.09;;;12.37;55.45
48527;BME280;34317;51.660;5.824;2023-03-20T09:03:17;101882.25;;;12.39;55.21
48527;BME280;34317;51.660;5.824;2023-03-20T09:05:46;101886.59;;;12.41;55.02
48527;BME280;34317;51.660;5.824;2023-03-20T09:08:14;101883.84;;;12.43;55.04
48527;BME280;34317;51.660;5.824;2023-03-20T09:10:41;101880.28;;;12.44;54.92
48527;BME280;34317;51.660;5.824;2023-03-20T09:13:08;101878.53;;;12.43;54.93
48527;BME280;34317;51.660;5.824;2023-03-20T09:15:53;101885.59;;;12.44;54.92
48527;BME280;34317;51.660;5.824;2023-03-20T09:18:21;101883.75;;;12.46;54.73
48527;BME280;34317;51.660;5.824;2023-03-20T09:20:49;101887.22;;;12.48;54.60
48527;BME280;34317;51.660;5.824;2023-03-20T09:23:17;101880.06;;;12.50;54.83
48527;BME280;34317;51.660;5.824;2023-03-20T09:25:45;101885.28;;;12.53;54.70
48527;BME280;34317;51.660;5.824;2023-03-20T09:28:12;101885.16;;;12.56;54.74
48527;BME280;34317;51.660;5.824;2023-03-20T09:30:39;101878.00;;;12.58;54.77
48527;BME280;34317;51.660;5.824;2023-03-20T09:33:09;101886.78;;;12.60;54.61
48527;BME280;34317;51.660;5.824;2023-03-20T09:35:37;101895.56;;;12.62;54.62
48527;BME280;34317;51.660;5.824;2023-03-20T09:38:04;101883.09;;;12.64;54.69
48527;BME280;34317;51.660;5.824;2023-03-20T09:40:48;101887.59;;;12.62;54.43
48527;BME280;34317;51.660;5.824;2023-03-20T09:46:02;101896.47;;;12.61;54.77
48527;BME280;34317;51.660;5.824;2023-03-20T09:51:37;101904.47;;;12.61;55.03
48527;BME280;34317;51.660;5.824;2023-03-20T09:54:18;101910.63;;;12.62;55.08
48527;BME280;34317;51.660;5.824;2023-03-20T09:56:49;101906.06;;;12.65;55.21
48527;BME280;34317;51.660;5.824;2023-03-20T09:59:18;101911.38;;;12.65;55.35
48527;BME280;34317;51.660;5.824;2023-03-20T10:01:50;101904.22;;;12.68;55.11
48527;BME280;34317;51.660;5.824;2023-03-20T10:04:18;101915.75;;;12.68;55.29
48527;BME280;34317;51.660;5.824;2023-03-20T10:06:45;101921.91;;;12.69;55.23
48527;BME280;34317;51.660;5.824;2023-03-20T10:09:20;101925.50;;;12.68;55.00
48527;BME280;34317;51.660;5.824;2023-03-20T10:12:02;101927.34;;;12.65;55.16
48527;BME280;34317;51.660;5.824;2023-03-20T10:20:34;101916.94;;;12.59;54.92
48527;BME280;34317;51.660;5.824;2023-03-20T10:25:48;101911.53;;;12.62;55.25
48527;BME280;34317;51.660;5.824;2023-03-20T10:28:21;101903.41;;;12.65;54.74
48527;BME280;34317;51.660;5.824;2023-03-20T10:31:08;101904.22;;;12.68;54.92
48527;BME280;34317;51.660;5.824;2023-03-20T10:41:37;101893.91;;;12.83;54.60
48527;BME280;34317;51.660;5.824;2023-03-20T10:44:25;101891.06;;;12.88;54.79
48527;BME280;34317;51.660;5.824;2023-03-20T10:46:56;101889.00;;;12.96;55.00
48527;BME280;34317;51.660;5.824;2023-03-20T10:49:41;101885.03;;;13.07;55.08
48527;BME280;34317;51.660;5.824;2023-03-20T10:52:16;101893.59;;;13.15;55.01
48527;BME280;34317;51.660;5.824;2023-03-20T10:54:55;101887.22;;;13.19;54.81
48527;BME280;34317;51.660;5.824;2023-03-20T10:57:25;101894.16;;;13.23;54.75
48527;BME280;34317;51.660;5.824;2023-03-20T10:59:55;101884.44;;;13.22;54.38
48527;BME280;34317;51.660;5.824;2023-03-20T11:02:30;101886.44;;;13.17;54.28
48527;BME280;34317;51.660;5.824;2023-03-20T11:04:59;101892.72;;;13.14;54.24
48527;BME280;34317;51.660;5.824;2023-03-20T11:07:32;101890.25;;;13.10;54.46
48527;BME280;34317;51.660;5.824;2023-03-20T11:15:33;101887.69;;;13.07;54.47
48527;BME280;34317;51.660;5.824;2023-03-20T11:18:03;101886.78;;;13.08;54.61
48527;BME280;34317;51.660;5.824;2023-03-20T11:20:34;101875.16;;;13.10;54.78
48527;BME280;34317;51.660;5.824;2023-03-20T11:23:04;101877.75;;;13.12;54.72
48527;BME280;34317;51.660;5.824;2023-03-20T11:25:35;101879.47;;;13.13;54.68
48527;BME280;34317;51.660;5.824;2023-03-20T11:28:19;101874.03;;;13.16;54.84
48527;BME280;34317;51.660;5.824;2023-03-20T11:30:47;101862.41;;;13.18;55.00
48527;BME280;34317;51.660;5.824;2023-03-20T11:33:32;101863.16;;;13.22;54.71
48527;BME280;34317;51.660;5.824;2023-03-20T11:36:00;101863.28;;;13.19;54.76
48527;BME280;34317;51.660;5.824;2023-03-20T11:38:29;101868.63;;;13.19;54.92
48527;BME280;34317;51.660;5.824;2023-03-20T11:40:57;101859.56;;;13.23;54.88
48527;BME280;34317;51.660;5.824;2023-03-20T11:43:25;101855.13;;;13.23;54.84
48527;BME280;34317;51.660;5.824;2023-03-20T11:45:55;101863.78;;;13.29;55.04
48527;BME280;34317;51.660;5.824;2023-03-20T11:48:35;101868.88;;;13.35;54.84
48527;BME280;34317;51.660;5.824;2023-03-20T11:53:38;101854.34;;;13.43;54.95
48527;BME280;34317;51.660;5.824;2023-03-20T12:01:15;101840.78;;;13.50;54.61
48527;BME280;34317;51.660;5.824;2023-03-20T12:06:25;101842.53;;;13.51;54.36
48527;BME280;34317;51.660;5.824;2023-03-20T12:08:59;101838.00;;;13.53;54.58
48527;BME280;34317;51.660;5.824;2023-03-20T12:11:42;101845.72;;;13.59;54.55
48527;BME280;34317;51.660;5.824;2023-03-20T12:14:21;101841.03;;;13.66;54.63
48527;BME280;34317;51.660;5.824;2023-03-20T12:16:54;101838.91;;;13.74;54.46
48527;BME280;34317;51.660;5.824;2023-03-20T12:19:27;101828.84;;;13.80;54.47
48527;BME280;34317;51.660;5.824;2023-03-20T12:22:06;101828.72;;;13.83;54.18
48527;BME280;34317;51.660;5.824;2023-03-20T12:24:42;101832.97;;;13.88;54.04
48527;BME280;34317;51.660;5.824;2023-03-20T12:27:27;101826.72;;;13.89;54.12
48527;BME280;34317;51.660;5.824;2023-03-20T12:30:19;101830.19;;;13.91;53.91
48527;BME280;34317;51.660;5.824;2023-03-20T12:32:59;101831.00;;;13.93;54.07
48527;BME280;34317;51.660;5.824;2023-03-20T12:35:30;101822.88;;;13.96;54.16
48527;BME280;34317;51.660;5.824;2023-03-20T12:37:59;101817.22;;;14.04;54.31
48527;BME280;34317;51.660;5.824;2023-03-20T12:40:41;101821.31;;;14.11;54.39
48527;BME280;34317;51.660;5.824;2023-03-20T12:43:25;101810.41;;;14.17;54.09
48527;BME280;34317;51.660;5.824;2023-03-20T12:46:02;101816.59;;;14.17;53.75
48527;BME280;34317;51.660;5.824;2023-03-20T12:49:05;101807.00;;;14.13;53.55
48527;BME280;34317;51.660;5.824;2023-03-20T13:00:36;101810.88;;;14.06;53.92
48527;BME280;34317;51.660;5.824;2023-03-20T13:13:54;101786.38;;;14.18;53.85
48527;BME280;34317;51.660;5.824;2023-03-20T13:19:00;101780.59;;;14.28;53.72
48527;BME280;34317;51.660;5.824;2023-03-20T13:21:32;101782.34;;;14.29;53.69
48527;BME280;34317;51.660;5.824;2023-03-20T13:24:29;101786.81;;;14.28;53.50
48527;BME280;34317;51.660;5.824;2023-03-20T13:30:03;101783.53;;;14.21;53.40
48527;BME280;34317;51.660;5.824;2023-03-20T13:37:45;101774.97;;;14.15;53.38
48527;BME280;34317;51.660;5.824;2023-03-20T13:40:23;101777.56;;;14.16;53.45
48527;BME280;34317;51.660;5.824;2023-03-20T13:43:18;101768.50;;;14.20;53.61
48527;BME280;34317;51.660;5.824;2023-03-20T13:45:51;101763.03;;;14.24;53.46
48527;BME280;34317;51.660;5.824;2023-03-20T13:48:28;101763.03;;;14.24;53.39
48527;BME280;34317;51.660;5.824;2023-03-20T13:51:15;101756.91;;;14.21;53.28
48527;BME280;34317;51.660;5.824;2023-03-20T13:59:49;101748.47;;;14.12;53.49
48527;BME280;34317;51.660;5.824;2023-03-20T14:05:20;101750.13;;;14.14;53.66
48527;BME280;34317;51.660;5.824;2023-03-20T14:07:54;101743.88;;;14.15;53.53
48527;BME280;34317;51.660;5.824;2023-03-20T14:12:57;101750.66;;;14.23;53.82
48527;BME280;34317;51.660;5.824;2023-03-20T14:15:27;101746.06;;;14.26;53.68
48527;BME280;34317;51.660;5.824;2023-03-20T14:18:02;101749.63;;;14.25;53.57
48527;BME280;34317;51.660;5.824;2023-03-20T14:20:38;101747.19;;;14.20;53.50
48527;BME280;34317;51.660;5.824;2023-03-20T14:23:15;101741.19;;;14.15;53.69
48527;BME280;34317;51.660;5.824;2023-03-20T14:25:46;101738.53;;;14.15;53.90
48527;BME280;34317;51.660;5.824;2023-03-20T14:30:42;101731.47;;;14.14;53.91
48527;BME280;34317;51.660;5.824;2023-03-20T14:35:47;101728.16;;;14.09;53.83
48527;BME280;34317;51.660;5.824;2023-03-20T14:38:30;101730.91;;;14.08;53.73
48527;BME280;34317;51.660;5.824;2023-03-20T14:41:23;101715.91;;;14.05;53.96
48527;BME280;34317;51.660;5.824;2023-03-20T14:46:51;101721.22;;;14.05;54.00
48527;BME280;34317;51.660;5.824;2023-03-20T14:49:25;101708.72;;;14.07;53.94
48527;BME280;34317;51.660;5.824;2023-03-20T14:52:17;101707.84;;;14.07;54.10
48527;BME280;34317;51.660;5.824;2023-03-20T14:54:52;101706.13;;;14.06;53.82
48527;BME280;34317;51.660;5.824;2023-03-20T14:57:32;101705.41;;;14.02;53.77
48527;BME280;34317;51.660;5.824;2023-03-20T15:00:23;101703.66;;;14.01;54.15
48527;BME280;34317;51.660;5.824;2023-03-20T15:02:57;101707.13;;;14.03;54.04
48527;BME280;34317;51.660;5.824;2023-03-20T15:05:30;101701.78;;;14.03;54.14
48527;BME280;34317;51.660;5.824;2023-03-20T15:08:16;101701.94;;;14.00;54.30
48527;BME280;34317;51.660;5.824;2023-03-20T15:10:51;101701.22;;;13.96;54.05
48527;BME280;34317;51.660;5.824;2023-03-20T15:13:19;101704.91;;;13.94;54.08
48527;BME280;34317;51.660;5.824;2023-03-20T15:15:55;101702.38;;;13.91;54.08
48527;BME280;34317;51.660;5.824;2023-03-20T15:18:25;101700.63;;;13.90;54.19
48527;BME280;34317;51.660;5.824;2023-03-20T15:20:56;101700.78;;;13.87;53.97
48527;BME280;34317;51.660;5.824;2023-03-20T15:23:24;101697.31;;;13.85;54.11